Terminal Aerodrome Forecast
Issued by NWS Cleveland, OH

Home | Current Version | Previous Version | Graphics & Text | Print | Product List | Glossary On
Versions: 1 2 3 4 5 6 7 8 9 10 11 12 13 14 15 16 17 18 19 20 21 22 23 24 25 26 27
000
FTUS41 KCLE 031731
TAFCLE
TAF
KCLE 031731Z 0318/0424 27006KT P6SM SCT019 OVC025
      TEMPO 0318/0321 BKN019 OVC025
     FM040800 21004KT P6SM SCT025 OVC150
     FM041600 14008KT P6SM OVC100=

USA.gov is the U.S. government's official web portal to all federal, state and local government web resources and services.